Time;durP1;ratioP1;P1;durP2;ratioP2;P2;SDS_P1;SDS_P2;PMS_P1;PMS_P2;Temp;Humidity;BMP_temperature;BMP_pressure;BME280_temperature;BME280_humidity;BME280_pressure;Samples;Min_cycle;Max_cycle;Signal;HPM_P1;HPM_P2
2022/12/10 00:01:45;;;;;;;72.90;39.25;;;-2.30;99.90;;;;;;5076536;28;20524;-63
2022/12/10 00:04:13;;;;;;;71.22;39.30;;;-1.70;99.90;;;;;;5061664;28;20040;-63
2022/12/10 00:06:39;;;;;;;75.32;39.88;;;-2.20;99.90;;;;;;5105280;27;20127;-65
2022/12/10 00:09:11;;;;;;;73.30;39.00;;;-1.10;99.90;;;;;;5089380;28;20043;-66
2022/12/10 00:11:38;;;;;;;71.30;39.15;;;-1.80;99.90;;;;;;5077318;28;20079;-67
2022/12/10 00:14:06;;;;;;;78.65;41.55;;;-2.40;99.90;;;;;;5030993;28;20218;-66
2022/12/10 00:16:33;;;;;;;78.45;40.63;;;-2.30;99.90;;;;;;5054662;28;20102;-65
2022/12/10 00:19:00;;;;;;;74.80;40.20;;;-1.20;99.90;;;;;;5078712;28;20040;-65
2022/12/10 00:21:29;;;;;;;69.22;39.28;;;-1.10;99.90;;;;;;5077079;28;20043;-64
2022/12/10 00:23:55;;;;;;;70.72;39.28;;;-2.30;99.90;;;;;;5076770;28;20051;-64
2022/12/10 00:26:23;;;;;;;76.93;41.47;;;-1.20;99.90;;;;;;5078540;28;20359;-65
2022/12/10 00:28:51;;;;;;;75.05;41.17;;;-2.30;99.90;;;;;;5080253;28;20124;-63
2022/12/10 00:31:20;;;;;;;76.43;40.47;;;-1.90;99.90;;;;;;5075775;28;20071;-63
2022/12/10 00:33:46;;;;;;;77.55;39.05;;;-2.00;99.90;;;;;;5079168;28;20105;-63
2022/12/10 00:36:19;;;;;;;77.00;41.92;;;-1.40;99.90;;;;;;5079401;28;20125;-64
2022/12/10 00:38:45;;;;;;;76.80;39.53;;;-1.20;99.90;;;;;;5076669;28;20052;-63
2022/12/10 00:41:12;;;;;;;80.22;41.90;;;-1.30;99.90;;;;;;5088370;28;20047;-65
2022/12/10 00:43:38;;;;;;;76.80;41.58;;;-1.00;99.90;;;;;;5078573;28;21788;-66
2022/12/10 00:46:05;;;;;;;78.80;41.92;;;-2.20;99.90;;;;;;5064600;28;20040;-64
2022/12/10 00:48:31;;;;;;;76.10;41.28;;;-1.10;99.90;;;;;;5073767;28;20523;-64
2022/12/10 00:51:03;;;;;;;76.00;38.35;;;-2.00;99.90;;;;;;5042120;28;20036;-64
2022/12/10 00:53:30;;;;;;;76.38;39.63;;;-1.20;99.90;;;;;;5075889;28;20044;-63
2022/12/10 00:55:57;;;;;;;73.50;40.13;;;-0.80;99.90;;;;;;5102342;27;20066;-64
2022/12/10 00:58:23;;;;;;;66.63;36.35;;;-0.90;99.90;;;;;;5077049;28;20128;-64
2022/12/10 01:00:49;;;;;;;78.55;43.20;;;-1.40;99.90;;;;;;5074258;28;20167;-64
2022/12/10 01:03:15;;;;;;;73.68;38.50;;;-1.30;99.90;;;;;;5054815;28;20177;-65
2022/12/10 01:05:41;;;;;;;76.88;43.22;;;-2.00;99.90;;;;;;5088795;28;20556;-64
2022/12/10 01:08:07;;;;;;;77.45;41.92;;;-2.00;99.90;;;;;;5078441;28;20040;-64
2022/12/10 01:10:33;;;;;;;85.38;44.08;;;-2.00;99.90;;;;;;5073581;28;20043;-64
2022/12/10 01:12:59;;;;;;;82.30;44.33;;;-2.00;99.90;;;;;;5076752;28;20035;-65
2022/12/10 01:15:24;;;;;;;90.05;46.03;;;-2.10;99.90;;;;;;5077064;28;20044;-64
2022/12/10 01:17:50;;;;;;;87.40;44.83;;;-2.10;99.90;;;;;;5073378;28;20039;-65
2022/12/10 01:20:16;;;;;;;85.72;43.72;;;-1.00;99.90;;;;;;5086562;28;20043;-64
2022/12/10 01:22:41;;;;;;;89.28;47.35;;;-2.30;99.90;;;;;;5074970;28;20401;-63
2022/12/10 01:25:07;;;;;;;90.93;44.42;;;-1.30;99.90;;;;;;5073821;28;20142;-64
2022/12/10 01:27:33;;;;;;;88.07;43.78;;;-1.40;99.90;;;;;;5078239;28;20040;-63
2022/12/10 01:29:59;;;;;;;87.22;43.47;;;-2.20;99.90;;;;;;5080644;28;20557;-65
2022/12/10 01:32:24;;;;;;;85.80;43.47;;;-1.10;99.90;;;;;;5078138;28;20066;-64
2022/12/10 01:34:50;;;;;;;91.30;46.63;;;-2.50;99.90;;;;;;5041955;28;20626;-63
2022/12/10 01:37:16;;;;;;;92.15;45.42;;;-1.80;99.90;;;;;;5045959;28;20262;-64
2022/12/10 01:39:42;;;;;;;82.60;40.88;;;-2.60;99.90;;;;;;5076128;28;20095;-64
2022/12/10 01:42:11;;;;;;;96.90;47.00;;;-2.50;99.90;;;;;;5061557;28;20040;-64
2022/12/10 01:44:43;;;;;;;95.13;48.00;;;-2.00;99.90;;;;;;5080313;28;20031;-64
2022/12/10 01:47:09;;;;;;;97.90;48.97;;;-2.70;99.90;;;;;;5080191;28;20046;-64
2022/12/10 01:49:38;;;;;;;101.70;49.78;;;-1.50;99.90;;;;;;5060182;28;20047;-64
2022/12/10 01:52:07;;;;;;;99.00;48.17;;;-1.30;99.90;;;;;;5077038;28;20107;-64
2022/12/10 01:54:38;;;;;;;98.20;48.05;;;-1.70;99.90;;;;;;5078245;28;20044;-65
2022/12/10 01:57:07;;;;;;;96.18;46.85;;;-1.50;99.90;;;;;;5059470;28;20819;-64
2022/12/10 01:59:35;;;;;;;101.80;48.10;;;-1.20;99.90;;;;;;5107642;27;20040;-64
2022/12/10 02:02:33;;;;;;;102.90;47.75;;;-2.00;99.90;;;;;;5078098;28;20043;-64
2022/12/10 02:05:22;;;;;;;99.70;49.13;;;-1.20;99.90;;;;;;5059220;28;20494;-63
2022/12/10 02:07:54;;;;;;;90.05;43.33;;;-2.60;99.90;;;;;;5077890;28;20044;-64
2022/12/10 02:10:38;;;;;;;99.05;49.42;;;-1.20;99.90;;;;;;5078338;28;20113;-64
2022/12/10 02:13:30;;;;;;;99.57;43.92;;;-2.20;99.90;;;;;;5077658;28;20061;-64
2022/12/10 02:16:28;;;;;;;96.78;46.65;;;-2.30;99.90;;;;;;5078969;28;20090;-64
2022/12/10 02:19:06;;;;;;;97.35;43.85;;;-1.20;99.90;;;;;;5077029;28;20048;-64
2022/12/10 02:21:40;;;;;;;99.22;47.88;;;-2.10;99.90;;;;;;5075200;28;20436;-64
2022/12/10 02:24:13;;;;;;;97.53;46.92;;;-1.90;99.90;;;;;;5062236;28;20051;-64
2022/12/10 02:27:03;;;;;;;96.45;47.10;;;-2.30;99.90;;;;;;5079361;28;20153;-65
2022/12/10 02:29:30;;;;;;;104.07;49.55;;;-2.10;99.90;;;;;;5080221;28;20098;-64
2022/12/10 02:32:02;;;;;;;104.72;48.88;;;-1.80;99.90;;;;;;5080294;28;20047;-64
2022/12/10 02:34:32;;;;;;;96.70;47.77;;;-2.30;99.90;;;;;;5078308;28;20054;-64
2022/12/10 02:37:02;;;;;;;98.72;48.25;;;-2.10;99.90;;;;;;5074550;28;20056;-64
2022/12/10 02:39:33;;;;;;;101.55;48.22;;;-1.70;99.90;;;;;;5106460;27;20040;-64
2022/12/10 02:42:01;;;;;;;93.22;47.97;;;-2.10;99.90;;;;;;5078851;28;20346;-63
2022/12/10 02:44:29;;;;;;;96.85;48.92;;;-1.10;99.90;;;;;;5106147;27;21318;-64
2022/12/10 02:46:57;;;;;;;97.95;51.28;;;-2.00;99.90;;;;;;5080269;28;20035;-64
2022/12/10 02:49:25;;;;;;;90.43;45.42;;;-1.10;99.90;;;;;;5077852;28;20042;-64
2022/12/10 02:51:52;;;;;;;97.18;48.80;;;-2.50;99.90;;;;;;5059472;28;20441;-63
2022/12/10 02:54:39;;;;;;;104.85;50.20;;;-1.50;99.90;;;;;;5075324;28;20397;-64
2022/12/10 02:57:29;;;;;;;97.43;51.28;;;-2.10;99.90;;;;;;5108379;27;20451;-63
2022/12/10 03:00:09;;;;;;;86.97;39.55;;;-2.10;99.90;;;;;;5076997;28;20044;-64
2022/12/10 03:02:37;;;;;;;101.88;50.85;;;-2.40;99.90;;;;;;5078974;28;20043;-63
2022/12/10 03:05:25;;;;;;;107.45;53.95;;;-2.00;99.90;;;;;;5080307;28;20362;-64
2022/12/10 03:08:02;;;;;;;97.32;48.17;;;-1.20;99.90;;;;;;5081433;28;20115;-64
2022/12/10 03:10:51;;;;;;;108.47;56.13;;;-2.30;99.90;;;;;;5103612;27;20087;-63
2022/12/10 03:13:20;;;;;;;101.57;50.55;;;-2.00;99.90;;;;;;5047519;28;20040;-64
2022/12/10 03:15:48;;;;;;;100.30;50.65;;;-1.90;99.90;;;;;;5089188;28;20143;-65
2022/12/10 03:18:16;;;;;;;109.65;53.58;;;-2.00;99.90;;;;;;5079909;28;20119;-65
2022/12/10 03:20:45;;;;;;;104.53;52.67;;;-2.40;99.90;;;;;;5059337;28;20092;-65
2022/12/10 03:23:16;;;;;;;109.05;54.30;;;-1.90;99.90;;;;;;5058402;28;20050;-65
2022/12/10 03:25:43;;;;;;;109.03;52.95;;;-2.40;99.90;;;;;;5075282;28;20047;-64
2022/12/10 03:28:09;;;;;;;108.00;53.40;;;-1.30;99.90;;;;;;5078905;28;20075;-64
2022/12/10 03:30:37;;;;;;;105.65;53.72;;;-2.50;99.90;;;;;;5058064;28;20046;-63
2022/12/10 03:33:03;;;;;;;106.93;51.53;;;-1.40;99.90;;;;;;5079403;28;20044;-65
2022/12/10 03:35:30;;;;;;;95.20;48.25;;;-1.50;99.90;;;;;;5060543;28;20059;-63
2022/12/10 03:37:56;;;;;;;104.60;51.08;;;-1.40;99.90;;;;;;5089034;28;20038;-64
2022/12/10 03:40:24;;;;;;;102.13;51.05;;;-1.20;99.90;;;;;;5061034;28;20039;-63
2022/12/10 03:42:50;;;;;;;103.43;50.30;;;-2.50;99.90;;;;;;5092023;27;20202;-63
2022/12/10 03:45:16;;;;;;;114.47;55.85;;;-1.40;99.90;;;;;;5077198;28;20044;-64
2022/12/10 03:47:42;;;;;;;107.60;49.65;;;-1.60;99.90;;;;;;5058770;28;20390;-64
2022/12/10 03:50:08;;;;;;;108.15;53.35;;;-2.60;99.90;;;;;;5058831;28;20043;-63
2022/12/10 03:52:34;;;;;;;112.25;52.45;;;-2.70;99.90;;;;;;5075217;28;20032;-64
2022/12/10 03:55:00;;;;;;;112.47;55.58;;;-2.40;99.90;;;;;;5077287;28;20153;-64
2022/12/10 03:57:26;;;;;;;109.82;51.58;;;-1.90;99.90;;;;;;5040825;28;20446;-65
2022/12/10 03:59:52;;;;;;;114.40;52.58;;;-1.30;99.90;;;;;;5072320;28;20062;-65
2022/12/10 04:02:18;;;;;;;108.88;53.40;;;-2.70;99.90;;;;;;5059019;28;20047;-64
2022/12/10 04:04:44;;;;;;;122.07;59.17;;;-1.70;99.90;;;;;;5075287;28;20039;-64
2022/12/10 04:07:10;;;;;;;118.15;55.67;;;-2.60;99.90;;;;;;5077205;28;20296;-64
2022/12/10 04:09:36;;;;;;;123.47;59.42;;;-1.60;99.90;;;;;;5085936;28;20516;-64
2022/12/10 04:12:01;;;;;;;127.63;60.80;;;-2.10;99.90;;;;;;5075156;28;20092;-65
2022/12/10 04:17:12;;;;;;;123.72;57.95;;;-2.20;99.90;;;;;;5104818;27;20047;-64
2022/12/10 04:19:38;;;;;;;126.00;58.55;;;-2.80;99.90;;;;;;5075326;28;20104;-65
2022/12/10 04:27:36;;;;;;;131.88;62.42;;;-1.50;99.90;;;;;;5034943;28;20044;-66
2022/12/10 04:30:04;;;;;;;135.70;63.65;;;-2.30;99.90;;;;;;5074731;28;20107;-67
2022/12/10 04:32:29;;;;;;;136.55;62.03;;;-3.00;99.90;;;;;;5074779;28;20039;-65
2022/12/10 04:34:56;;;;;;;138.10;64.18;;;-1.60;99.90;;;;;;5058436;28;20101;-63
2022/12/10 04:37:23;;;;;;;141.85;64.40;;;-2.20;99.90;;;;;;5106584;27;20402;-63
2022/12/10 04:39:51;;;;;;;144.82;64.88;;;-2.60;99.90;;;;;;5075576;28;20079;-64
2022/12/10 04:42:18;;;;;;;142.25;63.47;;;-1.70;99.90;;;;;;5058918;28;20036;-65
2022/12/10 04:44:44;;;;;;;130.50;54.85;;;-2.40;99.90;;;;;;5075469;28;20060;-65
2022/12/10 04:47:11;;;;;;;147.15;66.68;;;-2.40;99.90;;;;;;5073194;28;20075;-64
2022/12/10 04:49:37;;;;;;;148.88;65.80;;;-1.40;99.90;;;;;;5076946;28;20036;-65
2022/12/10 04:52:04;;;;;;;130.48;57.72;;;-1.60;99.90;;;;;;5076059;28;20383;-65
2022/12/10 04:54:30;;;;;;;141.85;65.60;;;-3.00;99.90;;;;;;5057362;28;20752;-65
2022/12/10 04:56:55;;;;;;;134.38;60.58;;;-2.50;99.90;;;;;;5074386;28;20043;-63
2022/12/10 04:59:21;;;;;;;142.70;63.63;;;-1.50;99.90;;;;;;5059185;28;20109;-63
2022/12/10 05:01:47;;;;;;;145.55;63.40;;;-3.00;99.90;;;;;;5054490;28;20144;-65
2022/12/10 05:04:16;;;;;;;150.73;64.35;;;-1.80;99.90;;;;;;5075365;28;20798;-64
2022/12/10 05:06:42;;;;;;;153.10;66.65;;;-2.90;99.90;;;;;;5106863;27;20072;-63
2022/12/10 05:09:10;;;;;;;138.57;63.45;;;-2.40;99.90;;;;;;5087036;28;20438;-63
2022/12/10 05:11:36;;;;;;;140.95;61.03;;;-3.00;99.90;;;;;;5073151;28;20119;-65
2022/12/10 05:14:02;;;;;;;146.05;65.93;;;-3.00;99.90;;;;;;5075601;28;20835;-64
2022/12/10 05:16:30;;;;;;;147.95;66.47;;;-1.40;99.90;;;;;;5072641;28;20035;-64
2022/12/10 05:18:57;;;;;;;138.40;61.70;;;-1.70;99.90;;;;;;5103770;28;20105;-64
2022/12/10 05:23:27;;;;;;;138.75;60.17;;;-1.70;99.90;;;;;;5058802;28;20182;-65
2022/12/10 05:24:10;;;;;;;156.77;68.00;;;-3.10;99.90;;;;;;5074357;28;20039;-65
2022/12/10 05:26:36;;;;;;;162.52;68.10;;;-3.10;99.90;;;;;;5057121;28;20474;-65
2022/12/10 05:29:02;;;;;;;154.15;67.32;;;-2.20;99.90;;;;;;5059291;28;20048;-65
2022/12/10 05:31:29;;;;;;;143.40;63.88;;;-3.10;99.90;;;;;;5056247;28;20372;-66
2022/12/10 05:33:58;;;;;;;156.38;68.82;;;-2.20;99.90;;;;;;5061437;28;20556;-65
2022/12/10 05:36:29;;;;;;;142.52;60.15;;;-2.20;99.90;;;;;;5058925;28;21350;-66
2022/12/10 05:38:56;;;;;;;162.48;71.07;;;-2.60;99.90;;;;;;5077581;28;20068;-66
2022/12/10 05:41:24;;;;;;;147.68;61.80;;;-1.60;99.90;;;;;;5056937;28;20093;-64
2022/12/10 05:43:52;;;;;;;150.70;63.28;;;-2.80;99.90;;;;;;5078157;28;20163;-63
2022/12/10 05:46:21;;;;;;;137.85;56.55;;;-1.50;99.90;;;;;;5058933;28;20039;-66
2022/12/10 05:48:47;;;;;;;145.70;59.58;;;-1.50;99.90;;;;;;5100887;28;20281;-66
2022/12/10 05:51:15;;;;;;;151.75;63.10;;;-1.90;99.90;;;;;;5073740;28;20040;-65
2022/12/10 05:53:42;;;;;;;169.55;71.05;;;-2.80;99.90;;;;;;5074865;28;20040;-64
2022/12/10 05:56:11;;;;;;;159.95;66.65;;;-3.20;99.90;;;;;;5074090;28;20055;-66
2022/12/10 05:58:37;;;;;;;144.35;60.30;;;-3.20;99.90;;;;;;5074424;28;20044;-65
2022/12/10 06:01:08;;;;;;;156.43;65.57;;;-3.00;99.90;;;;;;5075930;28;20655;-66
2022/12/10 06:03:34;;;;;;;154.23;64.85;;;-2.80;99.90;;;;;;5101783;28;20073;-65
2022/12/10 06:06:00;;;;;;;147.07;59.08;;;-2.30;99.90;;;;;;5056751;28;20048;-65
2022/12/10 06:08:25;;;;;;;167.80;68.63;;;-2.70;99.90;;;;;;5074641;28;20044;-66
2022/12/10 06:10:51;;;;;;;149.60;65.90;;;-3.00;99.90;;;;;;5075433;28;20143;-65
2022/12/10 06:13:17;;;;;;;155.60;68.47;;;-3.10;99.90;;;;;;5076890;28;20142;-65
2022/12/10 06:15:43;;;;;;;150.82;59.20;;;-2.40;99.90;;;;;;5080758;28;20039;-65
2022/12/10 06:18:09;;;;;;;153.13;65.80;;;-2.20;99.90;;;;;;5080391;28;20044;-66
2022/12/10 06:20:38;;;;;;;151.85;66.70;;;-1.90;99.90;;;;;;5056009;28;21312;-65
2022/12/10 06:23:04;;;;;;;141.15;55.70;;;-3.10;99.90;;;;;;5108873;27;20047;-65
2022/12/10 06:25:30;;;;;;;145.80;63.67;;;-1.30;99.90;;;;;;5079184;28;20528;-64
2022/12/10 06:27:56;;;;;;;143.27;60.67;;;-2.90;99.90;;;;;;5061115;28;20044;-65
2022/12/10 06:30:21;;;;;;;148.07;65.30;;;-1.70;99.90;;;;;;5077477;28;20058;-65
2022/12/10 06:32:47;;;;;;;150.15;66.85;;;-1.60;99.90;;;;;;5061052;28;20068;-65
2022/12/10 06:35:13;;;;;;;136.68;58.78;;;-2.30;99.90;;;;;;5058298;28;20058;-66
2022/12/10 06:37:38;;;;;;;150.15;66.25;;;-2.40;99.90;;;;;;5077997;28;20298;-65
2022/12/10 06:40:05;;;;;;;136.90;57.60;;;-1.40;99.90;;;;;;5078046;28;20508;-66
2022/12/10 06:42:30;;;;;;;143.30;61.15;;;-1.80;99.90;;;;;;5076815;28;20486;-65
2022/12/10 06:44:56;;;;;;;153.75;66.40;;;-2.20;99.90;;;;;;5090588;28;20047;-65
2022/12/10 06:47:22;;;;;;;149.00;64.43;;;-1.40;99.90;;;;;;5079043;28;20521;-65
2022/12/10 06:49:48;;;;;;;150.20;65.82;;;-1.80;99.90;;;;;;5088990;28;20051;-64
2022/12/10 06:52:14;;;;;;;150.43;69.20;;;-2.40;99.90;;;;;;5074506;28;20044;-63
2022/12/10 06:54:39;;;;;;;143.43;65.38;;;-2.10;99.90;;;;;;5078099;28;20063;-64
2022/12/10 06:57:05;;;;;;;148.90;62.22;;;-2.30;99.90;;;;;;5044411;28;20047;-64
2022/12/10 06:59:31;;;;;;;141.63;61.13;;;-1.00;99.90;;;;;;5078818;28;20457;-64
2022/12/10 07:01:57;;;;;;;143.95;61.30;;;-1.70;99.90;;;;;;5079773;28;20111;-64
2022/12/10 07:04:23;;;;;;;149.98;66.30;;;-1.30;99.90;;;;;;5080978;28;20122;-64
2022/12/10 07:06:48;;;;;;;148.43;67.00;;;-1.40;99.90;;;;;;5073205;28;20588;-64
2022/12/10 07:09:14;;;;;;;145.18;62.85;;;-2.00;99.90;;;;;;5060718;28;20077;-65
2022/12/10 07:11:40;;;;;;;144.68;64.88;;;-1.00;99.90;;;;;;5077419;28;20074;-66
2022/12/10 07:14:05;;;;;;;134.95;56.88;;;-1.20;99.90;;;;;;5076661;28;20165;-64
2022/12/10 07:16:32;;;;;;;142.85;62.05;;;-1.10;99.90;;;;;;5078674;28;20055;-64
2022/12/10 07:19:00;;;;;;;148.85;67.97;;;-2.40;99.90;;;;;;5108938;27;20046;-64
2022/12/10 07:21:31;;;;;;;141.32;65.15;;;-1.30;99.90;;;;;;5079810;28;20044;-64
2022/12/10 07:24:00;;;;;;;154.18;67.88;;;-1.20;99.90;;;;;;5073402;28;20050;-64
2022/12/10 07:26:28;;;;;;;125.18;56.38;;;-1.70;99.90;;;;;;5080510;28;20409;-66
2022/12/10 07:28:54;;;;;;;148.05;63.05;;;-1.10;99.90;;;;;;5092037;27;20047;-66
2022/12/10 07:31:21;;;;;;;142.07;62.45;;;-1.40;99.90;;;;;;5060470;28;20062;-66
2022/12/10 07:33:48;;;;;;;146.90;62.47;;;-2.70;99.90;;;;;;5077885;28;20064;-66
2022/12/10 07:36:14;;;;;;;137.60;59.42;;;-2.30;99.90;;;;;;5061185;28;20044;-66
2022/12/10 07:38:40;;;;;;;131.05;57.97;;;-2.80;99.90;;;;;;5081935;27;20047;-68
2022/12/10 07:41:11;;;;;;;152.48;67.70;;;-2.60;99.90;;;;;;5078168;28;20573;-65
2022/12/10 07:43:39;;;;;;;148.95;64.07;;;-1.60;99.90;;;;;;5076326;28;20048;-69
2022/12/10 07:46:10;;;;;;;138.32;62.20;;;-2.00;99.90;;;;;;5074509;28;20052;-65
2022/12/10 07:48:37;;;;;;;150.25;62.60;;;-1.60;99.90;;;;;;5076215;28;20048;-65
2022/12/10 07:51:04;;;;;;;154.45;66.05;;;-2.50;99.90;;;;;;5075832;28;20470;-65
2022/12/10 07:53:30;;;;;;;164.02;69.80;;;-2.50;99.90;;;;;;5089645;28;20298;-65
2022/12/10 07:55:56;;;;;;;155.30;66.63;;;-1.80;99.90;;;;;;5106956;27;20294;-64
2022/12/10 07:58:21;;;;;;;142.82;64.00;;;-2.80;99.90;;;;;;5076558;28;20043;-65
2022/12/10 08:00:47;;;;;;;138.63;60.65;;;-2.80;99.90;;;;;;5051630;28;20491;-65
2022/12/10 08:03:13;;;;;;;141.73;61.55;;;-2.50;99.90;;;;;;5076462;28;20109;-64
2022/12/10 08:05:39;;;;;;;128.55;53.72;;;-2.80;99.90;;;;;;5072629;28;20557;-64
2022/12/10 08:08:05;;;;;;;152.70;65.88;;;-1.90;99.90;;;;;;5056457;28;20072;-65
2022/12/10 08:10:34;;;;;;;131.35;58.50;;;-1.60;99.90;;;;;;5055074;28;20039;-65
2022/12/10 08:12:59;;;;;;;140.57;62.72;;;-1.50;99.90;;;;;;5076423;28;20105;-65
2022/12/10 08:15:27;;;;;;;159.20;69.53;;;-2.80;99.90;;;;;;5077091;28;20719;-64
2022/12/10 08:17:53;;;;;;;157.00;67.75;;;-2.80;99.90;;;;;;5074696;28;20393;-64
2022/12/10 08:20:20;;;;;;;143.50;61.88;;;-1.80;99.90;;;;;;5060013;28;20052;-65
2022/12/10 08:22:45;;;;;;;114.97;47.67;;;-2.40;99.90;;;;;;5074935;28;20093;-64
2022/12/10 08:25:11;;;;;;;137.23;61.38;;;-2.70;99.90;;;;;;5087648;28;20745;-65
2022/12/10 08:27:36;;;;;;;153.63;65.80;;;-2.60;99.90;;;;;;5040084;28;20502;-65
2022/12/10 08:30:03;;;;;;;141.57;63.72;;;-2.60;99.90;;;;;;5108196;27;20051;-65
2022/12/10 08:32:29;;;;;;;164.10;71.38;;;-1.50;99.90;;;;;;5075535;28;20048;-65
2022/12/10 08:34:55;;;;;;;149.38;69.47;;;-2.60;99.90;;;;;;5076129;28;20078;-66
2022/12/10 08:37:21;;;;;;;148.63;70.18;;;-2.70;99.90;;;;;;5112636;27;20119;-62
2022/12/10 08:39:46;;;;;;;157.43;72.95;;;-2.00;99.90;;;;;;5079287;28;20471;-66
2022/12/10 08:42:12;;;;;;;142.30;66.10;;;-2.50;99.90;;;;;;5060767;28;20044;-63
2022/12/10 08:44:38;;;;;;;154.38;71.35;;;-1.70;99.90;;;;;;5062434;28;20177;-63
2022/12/10 08:47:04;;;;;;;147.98;69.30;;;-2.40;99.90;;;;;;5112120;27;20054;-63
2022/12/10 08:49:30;;;;;;;135.55;64.53;;;-2.30;99.90;;;;;;5062537;28;20032;-63
2022/12/10 08:51:56;;;;;;;137.27;67.20;;;-2.30;99.90;;;;;;5060719;28;20063;-63
2022/12/10 08:54:21;;;;;;;144.95;68.90;;;-2.10;99.90;;;;;;5076049;28;20113;-63
2022/12/10 08:56:47;;;;;;;128.05;59.50;;;-1.40;99.90;;;;;;5075504;28;20093;-63
2022/12/10 08:59:13;;;;;;;139.57;67.68;;;-1.00;99.90;;;;;;5075421;28;20054;-64
2022/12/10 09:01:38;;;;;;;135.98;66.82;;;-1.80;99.90;;;;;;5059015;28;20465;-64
2022/12/10 09:04:04;;;;;;;124.50;62.00;;;-0.80;99.90;;;;;;5076872;28;20047;-62
2022/12/10 09:06:30;;;;;;;118.15;54.85;;;-0.70;99.90;;;;;;5077845;28;20042;-64
2022/12/10 09:08:57;;;;;;;140.25;69.75;;;-1.40;99.90;;;;;;5078215;28;20097;-63
2022/12/10 09:11:29;;;;;;;122.00;61.40;;;-1.20;99.90;;;;;;5074601;28;20135;-63
2022/12/10 09:13:56;;;;;;;118.38;62.45;;;-1.00;99.90;;;;;;5108027;28;20047;-63
2022/12/10 09:16:29;;;;;;;125.40;64.47;;;-0.70;99.90;;;;;;5076306;28;20047;-63
2022/12/10 09:18:54;;;;;;;108.27;58.87;;;-0.50;99.90;;;;;;5076008;28;20048;-63
2022/12/10 09:21:20;;;;;;;110.38;56.38;;;-0.30;99.90;;;;;;5076038;28;20309;-63
2022/12/10 09:23:46;;;;;;;116.63;60.17;;;0.10;99.90;;;;;;5110860;28;20086;-64
2022/12/10 09:26:15;;;;;;;109.03;56.53;;;-0.60;99.90;;;;;;5074906;28;20043;-63
2022/12/10 09:28:43;;;;;;;112.95;56.47;;;0.00;99.90;;;;;;5077839;28;20032;-63
2022/12/10 09:31:09;;;;;;;119.05;59.15;;;-0.80;99.90;;;;;;5075151;28;20171;-63
2022/12/10 09:33:36;;;;;;;122.80;61.80;;;-0.90;99.90;;;;;;5108699;28;20029;-64
2022/12/10 09:36:07;;;;;;;125.22;62.20;;;-1.00;99.90;;;;;;5109775;28;20040;-64
2022/12/10 09:38:40;;;;;;;126.68;62.30;;;-1.00;99.90;;;;;;5059457;28;20047;-63
2022/12/10 09:41:37;;;;;;;120.05;57.30;;;-0.60;99.90;;;;;;5108712;28;20214;-63
2022/12/10 09:44:10;;;;;;;134.00;61.67;;;-0.50;99.90;;;;;;5076324;28;20469;-64
2022/12/10 09:46:52;;;;;;;129.48;62.20;;;-1.10;99.90;;;;;;5075554;28;20372;-65
2022/12/10 09:49:47;;;;;;;139.88;64.20;;;-0.80;99.90;;;;;;5078589;28;20052;-64
2022/12/10 09:52:16;;;;;;;132.50;58.85;;;-0.90;99.90;;;;;;5081372;28;20044;-64
2022/12/10 09:54:58;;;;;;;146.45;67.18;;;-0.60;99.90;;;;;;5081953;28;20075;-63
2022/12/10 09:57:38;;;;;;;142.10;63.10;;;-0.80;99.90;;;;;;5077838;28;20131;-64
2022/12/10 10:00:30;;;;;;;146.50;64.18;;;-1.10;99.90;;;;;;5081602;28;20401;-63
2022/12/10 10:03:01;;;;;;;148.05;64.85;;;-0.90;99.90;;;;;;5058746;28;20051;-63
2022/12/10 10:05:30;;;;;;;151.45;68.65;;;-0.70;99.90;;;;;;5079539;28;20044;-63
2022/12/10 10:08:03;;;;;;;160.05;68.32;;;-1.50;99.90;;;;;;5079690;28;20048;-64
2022/12/10 10:10:37;;;;;;;150.52;66.00;;;-0.70;99.90;;;;;;5079759;28;20113;-65
2022/12/10 10:13:25;;;;;;;157.60;65.43;;;-0.40;99.90;;;;;;5078360;28;20051;-63
2022/12/10 10:15:51;;;;;;;169.23;70.53;;;-1.20;99.90;;;;;;5082047;28;20044;-64
2022/12/10 10:18:37;;;;;;;164.57;70.93;;;-0.40;99.90;;;;;;5078507;28;20040;-64
2022/12/10 10:21:07;;;;;;;158.07;68.22;;;-0.80;99.90;;;;;;5079286;28;20092;-64
2022/12/10 10:23:33;;;;;;;166.70;71.18;;;-1.40;99.90;;;;;;5079994;28;20443;-64
2022/12/10 10:25:59;;;;;;;165.52;71.28;;;-0.40;99.90;;;;;;5063291;28;20059;-64
2022/12/10 10:28:25;;;;;;;152.07;64.55;;;-1.20;99.90;;;;;;5079607;28;20056;-68
2022/12/10 10:30:54;;;;;;;162.85;71.75;;;-0.80;99.90;;;;;;5079668;28;20478;-64
2022/12/10 10:33:19;;;;;;;158.10;68.78;;;-0.30;99.90;;;;;;5078959;28;20508;-64
2022/12/10 10:35:57;;;;;;;165.65;72.55;;;-0.70;99.90;;;;;;5079012;28;20109;-63
2022/12/10 10:38:27;;;;;;;156.40;67.90;;;-1.20;99.90;;;;;;5079955;28;20109;-64
2022/12/10 10:40:56;;;;;;;162.60;69.70;;;-0.30;99.90;;;;;;5062473;28;20044;-64
2022/12/10 10:43:26;;;;;;;160.20;70.03;;;-0.20;99.90;;;;;;5078050;28;20052;-65
2022/12/10 10:46:01;;;;;;;164.32;69.95;;;-1.10;99.90;;;;;;5081055;28;20399;-64
2022/12/10 10:48:28;;;;;;;160.45;69.15;;;-0.70;99.90;;;;;;5112537;27;20054;-64
2022/12/10 10:51:16;;;;;;;163.30;70.15;;;-0.20;99.90;;;;;;5076392;28;20529;-65
2022/12/10 10:53:43;;;;;;;158.63;68.75;;;-0.20;99.90;;;;;;5096125;28;20048;-65
2022/12/10 10:56:24;;;;;;;172.23;74.07;;;-0.80;99.90;;;;;;5062635;28;20124;-64
2022/12/10 10:58:52;;;;;;;166.13;70.57;;;-0.70;99.90;;;;;;5079646;28;20505;-66
2022/12/10 11:01:19;;;;;;;157.68;66.45;;;-1.10;99.90;;;;;;5095551;28;20040;-65
2022/12/10 11:03:50;;;;;;;168.90;72.32;;;-0.20;99.90;;;;;;5078775;28;20056;-65
2022/12/10 11:06:16;;;;;;;172.13;72.05;;;-0.30;99.90;;;;;;5075027;28;20054;-65
2022/12/10 11:08:44;;;;;;;161.82;68.47;;;-1.10;99.90;;;;;;5079081;28;20106;-67
2022/12/10 11:11:20;;;;;;;174.30;73.55;;;-1.20;99.90;;;;;;5062206;28;20086;-65
2022/12/10 11:13:46;;;;;;;171.32;74.18;;;-0.60;99.90;;;;;;5078025;28;20128;-66
2022/12/10 11:16:14;;;;;;;174.45;73.88;;;-0.20;99.90;;;;;;5060175;28;20070;-65
2022/12/10 11:19:02;;;;;;;168.38;73.55;;;-1.00;99.90;;;;;;5112177;27;20044;-66
2022/12/10 11:21:30;;;;;;;156.10;67.68;;;0.00;99.90;;;;;;5075324;28;20052;-65
2022/12/10 11:23:57;;;;;;;166.02;71.50;;;-0.20;99.90;;;;;;5061345;28;20039;-65
2022/12/10 11:26:29;;;;;;;164.18;69.28;;;0.00;99.90;;;;;;5112951;27;20082;-64
2022/12/10 11:29:01;;;;;;;165.27;73.35;;;-0.80;99.90;;;;;;5077816;28;20052;-64
2022/12/10 11:31:48;;;;;;;158.60;70.10;;;-0.20;99.90;;;;;;5078854;28;20075;-65
2022/12/10 11:34:42;;;;;;;162.13;68.57;;;-1.00;99.90;;;;;;5078341;28;21003;-66
2022/12/10 11:37:17;;;;;;;;;;;-0.20;99.90;;;;;;5076337;28;20416;-64
2022/12/10 11:39:54;;;;;;;160.02;69.13;;;-0.10;99.90;;;;;;5078697;28;20170;-64
2022/12/10 11:42:20;;;;;;;166.45;69.65;;;-0.20;99.90;;;;;;5078844;28;20397;-64
2022/12/10 11:45:26;;;;;;;166.32;71.45;;;-1.00;99.90;;;;;;5061291;28;20040;-64
2022/12/10 11:48:15;;;;;;;152.00;64.90;;;-0.20;99.90;;;;;;5078298;28;20043;-65
2022/12/10 11:51:01;;;;;;;161.77;69.47;;;-0.50;99.90;;;;;;5078666;28;20044;-64
2022/12/10 11:53:45;;;;;;;164.65;71.32;;;0.10;99.90;;;;;;5076203;28;20128;-64
2022/12/10 11:56:43;;;;;;;157.00;70.55;;;0.10;99.90;;;;;;5078851;28;20044;-64
2022/12/10 11:59:15;;;;;;;155.23;68.90;;;0.20;99.90;;;;;;5075304;28;20080;-64
2022/12/10 12:01:56;;;;;;;150.38;66.10;;;-0.40;99.90;;;;;;5060257;28;20367;-64
2022/12/10 12:04:33;;;;;;;145.68;63.50;;;0.10;99.90;;;;;;5061088;28;20083;-64
2022/12/10 12:07:25;;;;;;;158.13;70.53;;;0.20;99.90;;;;;;5077573;28;20048;-64
2022/12/10 12:10:29;;;;;;;146.88;66.55;;;0.20;99.90;;;;;;5065644;28;20052;-64
2022/12/10 12:13:19;;;;;;;153.95;65.03;;;-0.30;99.90;;;;;;5092417;27;20063;-64
2022/12/10 12:15:59;;;;;;;163.02;73.82;;;-0.50;99.90;;;;;;5078749;28;20437;-64
2022/12/10 12:18:53;;;;;;;150.20;68.35;;;0.00;99.90;;;;;;5078469;28;20125;-64
2022/12/10 12:21:19;;;;;;;156.35;71.85;;;0.10;99.90;;;;;;5078539;28;20348;-66
2022/12/10 12:24:17;;;;;;;159.20;72.55;;;-0.70;99.90;;;;;;5074266;28;20363;-64
2022/12/10 12:27:15;;;;;;;151.63;68.65;;;0.20;99.90;;;;;;5110967;27;20048;-64
2022/12/10 12:29:47;;;;;;;154.02;66.18;;;-0.10;99.90;;;;;;5043973;28;20362;-66
2022/12/10 12:32:29;;;;;;;157.48;69.95;;;-0.60;99.90;;;;;;5092100;28;20139;-66
2022/12/10 12:35:09;;;;;;;148.65;68.32;;;0.20;99.90;;;;;;5078200;28;20818;-65
2022/12/10 12:37:49;;;;;;;145.00;63.95;;;-0.50;99.90;;;;;;5110602;27;20078;-67
2022/12/10 12:40:26;;;;;;;173.05;72.82;;;-0.20;99.90;;;;;;5055235;28;20055;-65
2022/12/10 12:42:59;;;;;;;153.52;67.13;;;-0.80;99.90;;;;;;5076944;28;20282;-66
2022/12/10 12:45:38;;;;;;;159.32;69.78;;;-0.30;99.90;;;;;;5077015;28;20051;-67